Latest Weather Observations for Hopetoun North

IDW60801

Issued at 12:05 pm WST Tuesday 2 September 2014 (issued every 30 minutes, with the page automatically refreshed every 10 minutes)

About weather observations | Map of weather stations | Latest weather observations for WA | Other Formats
Station Details ID: 009961 Name: HOPETOUN NORTH Lat: -33.93 Lon: 120.13 Height: 26.0 m
Data from the previous 72 hours. | See also: Recent months at Hopetoun North
Date/Time
WST
Temp
°C
App
Temp
°C
Dew
Point
Rel
Hum
%
Delta-T
°C
Wind Press
QNH
hPa
Press
MSL
hPa
Rain
since 9 am
mm
Dir
 
Spd
km/h
Gust
km/h
Spd
kts
Gust
kts
02/12:00pm 14.2 10.8 5.8 57 4.0 N 13 26 7 14 1017.4 1017.3 0.0
02/11:30am 13.7 10.3 6.1 60 3.6 N 13 17 7 9 1018.2 1018.1 0.0
02/11:00am 12.6 8.5 6.4 66 2.9 NNE 17 26 9 14 1018.3 1018.2 0.0
02/10:30am 10.9 7.0 7.2 78 1.8 NNE 17 28 9 15 1018.2 1018.1 0.0
02/10:00am 9.7 6.7 7.8 88 0.9 N 13 19 7 10 1019.4 1019.3 0.0
02/09:30am 8.3 4.3 8.3 100 0.0 NE 19 26 10 14 1018.7 1018.6 0.0
02/09:00am 7.7 5.1 7.7 100 0.0 NNE 11 15 6 8 1020.1 1020.0 0.6
02/08:30am 7.3 4.6 7.3 100 0.0 ENE 11 17 6 9 1019.4 1019.3 0.4
02/08:00am 6.7 3.8 6.7 100 0.0 NE 11 15 6 8 1020.0 1019.9 0.4
02/07:30am 6.3 2.6 6.3 100 0.0 ENE 15 19 8 10 1019.4 1019.3 0.4
02/07:00am 6.3 2.5 5.7 96 0.3 NE 15 19 8 10 1019.8 1019.7 0.0
02/06:30am 6.0 1.7 5.4 96 0.3 NE 17 24 9 13 1019.6 1019.5 0.0
02/06:00am 6.0 2.8 5.1 94 0.4 NE 11 17 6 9 1019.8 1019.7 0.0
02/05:30am 5.6 1.7 5.3 98 0.1 NNE 15 19 8 10 1019.7 1019.6 0.0
02/05:00am 5.2 1.2 5.1 99 0.0 NE 15 19 8 10 1019.9 1019.8 0.0
02/04:30am 5.1 1.1 5.0 99 0.0 NNE 15 20 8 11 1020.1 1020.0 0.0
02/04:00am 4.9 1.3 4.9 100 0.0 NNE 13 19 7 10 1020.3 1020.2 0.0
02/03:30am 5.0 0.3 5.0 100 0.0 NNE 19 24 10 13 1020.2 1020.1 0.0
02/03:00am 5.0 1.4 5.0 100 0.0 NNE 13 19 7 10 1020.7 1020.7 0.0
02/02:30am 4.4 0.7 4.4 100 0.0 NNE 13 19 7 10 1020.9 1020.9 0.0
02/02:00am 3.6 -0.3 3.6 100 0.0 NNE 13 17 7 9 1021.4 1021.4 0.0
02/01:30am 3.3 -0.2 3.3 100 0.0 NE 11 13 6 7 1021.8 1021.8 0.0
02/01:00am 3.3 -0.6 3.3 100 0.0 NE 13 15 7 8 1022.3 1022.3 0.0
02/12:30am 3.4 -0.5 3.4 100 0.0 NE 13 13 7 7 1022.7 1022.7 0.0
02/12:00am 3.7 0.6 3.7 100 0.0 NE 9 9 5 5 1023.3 1023.3 0.0
 
Date/Time
WST
Temp
°C
App
Temp
°C
Dew
Point
Rel
Hum
%
Delta-T
°C
Wind Press
QNH
hPa
Press
MSL
hPa
Rain
since 9 am
mm
Dir
 
Spd
km/h
Gust
km/h
Spd
kts
Gust
kts
01/11:30pm 4.2 1.2 4.2 100 0.0 NNE 9 13 5 7 1023.2 1023.2 0.0
01/11:00pm 4.8 1.5 4.8 100 0.0 NE 11 15 6 8 1023.4 1023.4 0.0
01/10:30pm 5.3 1.3 5.0 98 0.1 NE 15 19 8 10 1023.8 1023.8 0.0
01/10:00pm 5.5 1.5 5.1 97 0.2 NNE 15 22 8 12 1024.2 1024.2 0.0
01/09:30pm 5.9 2.3 5.0 94 0.4 NNE 13 17 7 9 1024.1 1024.1 0.0
01/09:00pm 6.4 2.5 5.2 92 0.5 NE 15 19 8 10 1023.9 1023.9 0.0
01/08:30pm 9.1 6.1 7.7 91 0.7 ENE 13 19 7 10 1023.9 1023.9 0.0
01/08:00pm 9.2 6.1 7.2 87 0.9 ENE 13 17 7 9 1024.1 1024.1 0.0
01/07:30pm 7.2 4.3 4.7 84 1.1 NE 9 13 5 7 1024.3 1024.3 0.0
01/07:00pm 7.6 5.1 4.7 82 1.3 NNE 7 9 4 5 1024.1 1024.1 0.0
01/06:30pm 8.3 5.7 4.1 75 1.8 NE 7 11 4 6 1023.8 1023.8 0.0
01/06:00pm 9.4 6.0 4.0 69 2.4 E 11 17 6 9 1023.6 1023.6 0.0
01/05:30pm 10.1 6.0 4.3 67 2.6 E 15 24 8 13 1023.2 1023.2 0.0
01/05:00pm 10.9 6.0 4.1 63 3.0 E 19 26 10 14 1022.9 1022.9 0.0
01/04:30pm 11.4 6.4 3.7 59 3.4 ESE 19 30 10 16 1022.9 1022.9 0.0
01/04:00pm 11.9 6.8 3.9 58 3.6 ESE 20 28 11 15 1022.7 1022.7 0.0
01/03:30pm 12.3 6.7 3.5 55 3.9 ESE 22 28 12 15 1022.9 1022.9 0.0
01/03:00pm 12.0 6.8 3.5 56 3.8 SE 20 28 11 15 1022.9 1022.9 0.0
01/02:30pm 12.3 7.2 3.0 53 4.1 SE 19 26 10 14 1023.1 1023.1 0.0
01/02:00pm 12.8 7.8 3.5 53 4.1 SE 19 26 10 14 1023.0 1023.0 0.0
01/01:30pm 12.8 8.5 3.2 52 4.3 SE 15 24 8 13 1023.4 1023.4 0.0
01/01:00pm 13.5 10.6 2.4 47 4.8 E 7 17 4 9 1023.7 1023.7 0.0
01/12:30pm 13.0 9.5 1.0 44 5.1 NNE 9 17 5 9 1024.2 1024.2 0.0
01/12:00pm 13.2 9.6 0.6 42 5.3 NNE 9 19 5 10 1024.6 1024.6 0.0
01/11:30am 13.1 9.7 2.1 47 4.8 NNE 9 20 5 11 1024.8 1024.8 0.0
01/11:00am 12.9 9.2 2.2 48 4.6 N 11 19 6 10 1025.1 1025.1 0.0
01/10:30am 12.2 8.7 1.5 48 4.6 NNE 9 13 5 7 1025.2 1025.2 0.0
01/10:00am 11.9 9.1 2.1 51 4.2 NE 6 11 3 6 1025.4 1025.4 0.0
01/09:30am 11.2 9.5 5.9 70 2.5 N 4 7 2 4 1025.6 1025.6 0.0
01/09:00am 9.0 8.0 9.0 100 0.0 N 4 6 2 3 1025.5 1025.5 0.2
01/08:30am 6.5 4.9 6.5 100 0.0 N 4 6 2 3 1025.3 1025.3 0.2
01/08:00am 5.0 2.7 5.0 100 0.0 NE 6 7 3 4 1025.0 1025.0 0.2
01/07:30am 4.0 1.9 4.0 100 0.0 NNE 4 6 2 3 1024.6 1024.6 0.2
01/07:00am 3.5 1.0 3.5 100 0.0 N 6 7 3 4 1024.1 1024.1 0.2
01/06:30am 3.4 0.6 3.4 100 0.0 NNW 7 9 4 5 1023.7 1023.7 0.2
01/06:00am 3.4 0.6 3.4 100 0.0 NNW 7 9 4 5 1023.4 1023.4 0.2
01/05:30am 3.6 0.5 3.6 100 0.0 NNW 9 11 5 6 1023.3 1023.3 0.2
01/05:00am 4.2 1.2 4.2 100 0.0 NNW 9 11 5 6 1023.0 1023.0 0.2
01/04:30am 3.9 0.9 3.9 100 0.0 NNW 9 11 5 6 1022.8 1022.8 0.2
01/04:00am 4.0 1.9 4.0 100 0.0 NNW 4 7 2 4 1022.6 1022.6 0.2
01/03:30am 4.3 1.9 4.3 100 0.0 N 6 9 3 5 1022.6 1022.6 0.2
01/03:00am 4.8 2.3 4.8 100 0.0 NNW 7 9 4 5 1022.2 1022.2 0.2
01/02:30am 6.0 3.9 5.9 99 0.0 NNW 6 9 3 5 1022.2 1022.2 0.2
01/02:00am 7.3 4.7 4.3 81 1.3 W 7 11 4 6 1022.2 1022.2 0.2
01/01:30am 8.9 5.5 4.1 72 2.1 SSW 11 15 6 8 1022.0 1022.0 0.2
01/01:00am 8.6 4.6 4.8 77 1.7 SSW 15 19 8 10 1022.0 1022.0 0.2
01/12:30am 8.1 4.9 5.0 81 1.4 SSW 11 19 6 10 1021.9 1021.9 0.2
01/12:00am 7.3 6.2 6.9 97 0.2 SSW 2 6 1 3 1021.9 1021.9 0.2
 
Date/Time
WST
Temp
°C
App
Temp
°C
Dew
Point
Rel
Hum
%
Delta-T
°C
Wind Press
QNH
hPa
Press
MSL
hPa
Rain
since 9 am
mm
Dir
 
Spd
km/h
Gust
km/h
Spd
kts
Gust
kts
31/11:30pm 7.4 5.7 7.4 100 0.0 S 6 9 3 5 1022.3 1022.3 0.2
31/11:00pm 7.7 3.2 6.8 94 0.4 SSW 20 30 11 16 1022.1 1022.1 0.2
31/10:30pm 7.9 5.5 4.3 78 1.6 SSW 6 7 3 4 1022.1 1022.1 0.2
31/10:00pm 8.6 4.9 4.6 76 1.8 S 13 20 7 11 1022.2 1022.2 0.2
31/09:30pm 9.1 3.5 5.5 78 1.6 SSW 24 37 13 20 1021.7 1021.7 0.2
31/09:00pm 9.2 5.1 4.2 71 2.2 SW 15 20 8 11 1021.5 1021.5 0.2
31/08:30pm 9.3 4.9 4.9 74 2.0 SSW 17 28 9 15 1021.4 1021.4 0.2
31/08:00pm 9.3 3.5 6.2 81 1.4 SSW 26 35 14 19 1021.1 1021.1 0.2
31/07:30pm 10.1 5.4 5.1 71 2.3 SSW 19 24 10 13 1020.8 1020.8 0.2
31/07:00pm 10.1 5.4 5.1 71 2.3 SSW 19 28 10 15 1020.6 1020.6 0.2
31/06:30pm 9.9 5.3 5.5 74 2.0 SSW 19 28 10 15 1020.4 1020.4 0.2
31/06:00pm 9.9 5.4 6.1 77 1.8 SSW 19 28 10 15 1019.8 1019.8 0.2
31/05:30pm 9.9 4.4 6.1 77 1.8 SSW 24 35 13 19 1019.4 1019.4 0.2
31/05:00pm 10.1 5.3 5.5 73 2.1 SSW 20 30 11 16 1019.1 1019.1 0.2
31/04:30pm 10.6 5.0 5.6 71 2.3 SSW 24 32 13 17 1018.6 1018.6 0.2
31/04:00pm 11.2 5.5 6.5 73 2.2 SSW 26 39 14 21 1018.3 1018.3 0.2
31/03:30pm 11.7 5.2 6.6 71 2.4 SSW 30 37 16 20 1017.9 1017.9 0.2
31/03:00pm 11.0 4.9 6.7 75 2.0 S 28 37 15 20 1017.6 1017.6 0.2
31/02:30pm 11.9 5.6 7.6 75 2.1 SSW 30 41 16 22 1017.1 1017.1 0.2
31/02:00pm 13.5 8.2 5.2 57 3.9 SW 22 28 12 15 1016.8 1016.8 0.2
31/01:30pm 13.8 8.6 5.4 57 3.9 SW 22 28 12 15 1017.0 1017.0 0.2
31/01:00pm 13.4 8.0 4.6 55 4.0 SW 22 32 12 17 1017.0 1017.0 0.2
31/12:30pm 13.5 7.9 5.2 57 3.9 SW 24 33 13 18 1017.3 1017.3 0.2
31/12:00pm 13.0 7.5 4.2 55 4.0 SW 22 32 12 17 1017.4 1017.4 0.2
31/11:30am 13.0 7.9 3.9 54 4.1 WSW 20 33 11 18 1017.6 1017.6 0.2
31/11:00am 12.7 7.3 4.7 58 3.7 WSW 22 33 12 18 1017.7 1017.7 0.0
31/10:30am 12.6 7.0 5.5 62 3.3 WSW 24 33 13 18 1017.9 1017.9 0.0
31/10:00am 12.3 6.5 6.1 66 2.9 WSW 26 35 14 19 1018.0 1018.0 0.0
31/09:30am 12.0 6.8 7.1 72 2.4 WSW 24 35 13 19 1017.9 1017.9 0.0
31/09:00am 11.3 7.4 8.5 83 1.4 W 19 28 10 15 1017.7 1017.7 10.2
31/08:30am 10.3 6.5 9.1 92 0.6 W 19 28 10 15 1017.7 1017.7 10.2
31/08:00am 9.2 7.7 9.2 100 0.0 WNW 7 15 4 8 1017.4 1017.4 10.2
31/07:30am 7.4 5.1 7.4 100 0.0 WNW 9 13 5 7 1017.1 1017.1 10.2
31/07:00am 7.5 5.2 7.5 100 0.0 WNW 9 13 5 7 1016.8 1016.8 10.2
31/06:30am 7.5 5.2 7.5 100 0.0 WNW 9 13 5 7 1016.8 1016.8 10.2
31/06:00am 7.6 5.3 7.6 100 0.0 WNW 9 13 5 7 1016.5 1016.4 10.2
31/05:30am 7.5 4.8 7.5 100 0.0 W 11 15 6 8 1016.5 1016.4 10.2
31/05:00am 7.3 5.3 7.3 100 0.0 W 7 9 4 5 1016.2 1016.1 10.2
31/04:30am 8.0 6.8 8.0 100 0.0 WNW 4 4 2 2 1016.1 1016.0 10.2
31/04:00am 8.6 7.0 8.6 100 0.0 NW 7 11 4 6 1016.0 1015.9 10.2
31/03:30am 8.6 8.3 8.6 100 0.0 CALM 0 0 0 0 1015.8 1015.7 10.2
31/03:00am 8.6 7.0 8.6 100 0.0 S 7 9 4 5 1015.5 1015.4 10.2
31/02:30am 8.8 6.1 8.8 100 0.0 S 13 33 7 18 1015.7 1015.6 10.0
31/02:00am 9.1 8.9 9.1 100 0.0 CALM 0 2 0 1 1015.6 1015.5 6.2
31/01:30am 9.1 8.2 9.1 100 0.0 NNW 4 4 2 2 1016.0 1015.9 6.2
31/01:00am 9.1 8.2 9.1 100 0.0 W 4 7 2 4 1016.0 1015.9 6.2
31/12:30am 9.2 7.3 9.2 100 0.0 SW 9 15 5 8 1016.2 1016.1 4.2
31/12:00am 9.4 8.2 9.4 100 0.0 S 6 7 3 4 1016.1 1016.0 4.0
 
Date/Time
WST
Temp
°C
App
Temp
°C
Dew
Point
Rel
Hum
%
Delta-T
°C
Wind Press
QNH
hPa
Press
MSL
hPa
Rain
since 9 am
mm
Dir
 
Spd
km/h
Gust
km/h
Spd
kts
Gust
kts
30/11:30pm 10.0 6.8 10.0 100 0.0 SSW 17 24 9 13 1016.5 1016.4 4.0
30/11:00pm 9.9 9.2 9.9 100 0.0 SW 4 6 2 3 1016.2 1016.1 4.0
30/10:30pm 10.0 10.1 10.0 100 0.0 CALM 0 0 0 0 1016.3 1016.2 4.0
30/10:00pm 9.9 9.2 9.9 100 0.0 SE 4 7 2 4 1016.4 1016.3 3.8
30/09:30pm 9.8 8.7 9.8 100 0.0 SSW 6 9 3 5 1016.9 1016.9 3.8
30/09:00pm 10.0 9.3 10.0 100 0.0 ESE 4 4 2 2 1016.6 1016.5 3.8
30/08:30pm 10.0 9.3 10.0 100 0.0 SSE 4 7 2 4 1016.3 1016.2 3.8
30/08:00pm 10.0 8.9 10.0 100 0.0 S 6 7 3 4 1016.4 1016.3 3.8
30/07:30pm 10.3 8.0 10.3 100 0.0 S 13 17 7 9 1016.3 1016.2 3.6
30/07:00pm 10.4 7.3 10.4 100 0.0 SSW 17 20 9 11 1016.0 1015.9 3.2
30/06:30pm 11.0 9.2 11.0 100 0.0 S 11 15 6 8 1015.6 1015.5 2.8
30/06:00pm 11.4 8.6 11.4 100 0.0 SSW 17 24 9 13 1015.3 1015.3 2.8
30/05:30pm 10.9 9.5 10.9 100 0.0 SSW 9 13 5 7 1015.3 1015.3 2.8
30/05:00pm 11.5 8.7 11.5 100 0.0 SSW 17 28 9 15 1014.9 1014.9 2.2
30/04:30pm 12.1 9.9 12.1 100 0.0 SSW 15 20 8 11 1014.4 1014.4 2.2
30/04:00pm 12.5 9.7 12.5 100 0.0 SSW 19 24 10 13 1014.2 1014.2 2.2
30/03:30pm 11.7 10.1 11.7 100 0.0 SSW 11 15 6 8 1013.9 1013.9 2.0
30/03:00pm 12.9 11.0 12.9 100 0.0 SSW 15 20 8 11 1013.7 1013.7 2.0
30/02:30pm 13.4 12.9 12.0 91 0.8 SW 6 7 3 4 1013.3 1013.3 2.0
30/02:00pm 14.0 13.7 12.6 91 0.8 W 6 11 3 6 1013.3 1013.3 2.0
30/01:30pm 13.1 12.9 13.1 100 0.0 WNW 6 9 3 5 1013.7 1013.7 2.0
30/01:00pm 12.8 12.9 12.8 100 0.0 WNW 4 7 2 4 1013.6 1013.6 2.0
30/12:30pm 12.4 11.8 12.4 100 0.0 NW 7 11 4 6 1013.8 1013.8 2.0

Other Formats:

Comma delimited format used in spreadsheet applications
http://www.bom.gov.au/fwo/IDW60801/IDW60801.95635.axf

JavaScript Object Notation format (JSON) in row-major order
http://www.bom.gov.au/fwo/IDW60801/IDW60801.95635.json